createdAt,value
2019-03-09T00:01:20.364Z,96171.20
2019-03-09T00:04:08.152Z,96176.86
2019-03-09T00:06:55.972Z,96167.29
2019-03-09T00:09:44.034Z,96163.18
2019-03-09T00:12:32.286Z,96168.38
2019-03-09T00:15:20.234Z,96166.05
2019-03-09T00:18:08.537Z,96169.25
2019-03-09T00:20:56.617Z,96168.84
2019-03-09T00:24:21.793Z,96161.23
2019-03-09T00:27:44.023Z,96160.73
2019-03-09T00:30:39.304Z,96160.55
2019-03-09T00:33:27.506Z,96161.77
2019-03-09T00:36:15.378Z,96166.38
2019-03-09T00:39:04.682Z,96166.38
2019-03-09T00:41:52.478Z,96165.16
2019-03-09T00:44:40.456Z,96159.59
2019-03-09T00:47:28.793Z,96151.37
2019-03-09T00:50:16.568Z,96163.27
2019-03-09T00:53:04.415Z,96147.08
2019-03-09T00:55:52.263Z,96155.78
2019-03-09T00:58:40.016Z,96139.17
2019-03-09T01:01:27.749Z,96144.67
2019-03-09T01:04:15.773Z,96159.67
2019-03-09T01:07:03.709Z,96150.98
2019-03-09T01:09:51.931Z,96149.19
2019-03-09T01:12:39.693Z,96165.03
2019-03-09T01:15:27.643Z,96160.55
2019-03-09T01:18:15.454Z,96173.05
2019-03-09T01:21:03.352Z,96164.66
2019-03-09T01:23:51.273Z,96162.47
2019-03-09T01:26:39.254Z,96159.16
2019-03-09T01:29:27.408Z,96161.79
2019-03-09T01:32:15.050Z,96168.58
2019-03-09T01:35:03.075Z,96169.68
2019-03-09T01:37:51.028Z,96167.08
2019-03-09T01:40:38.637Z,96159.09
2019-03-09T01:43:26.715Z,96166.94
2019-03-09T01:46:14.752Z,96161.99
2019-03-09T01:49:02.689Z,96158.79
2019-03-09T01:51:50.689Z,96160.14
2019-03-09T01:54:38.771Z,96153.50
2019-03-09T01:57:26.942Z,96148.31
2019-03-09T02:00:15.403Z,96160.39
2019-03-09T02:03:03.810Z,96156.68
2019-03-09T02:05:51.993Z,96144.27
2019-03-09T02:08:39.894Z,96154.94
2019-03-09T02:11:27.451Z,96147.88
2019-03-09T02:14:15.608Z,96143.25
2019-03-09T02:17:03.996Z,96127.00
2019-03-09T02:19:52.058Z,96117.62
2019-03-09T02:22:39.981Z,96121.16
2019-03-09T02:25:27.791Z,96130.08
2019-03-09T02:28:16.041Z,96122.06
2019-03-09T02:31:03.835Z,96114.48
2019-03-09T02:33:51.763Z,96114.27
2019-03-09T02:36:39.696Z,96111.42
2019-03-09T02:39:46.962Z,96112.91
2019-03-09T02:42:34.722Z,96109.52
2019-03-09T02:45:23.242Z,96112.12
2019-03-09T02:48:10.724Z,96116.00
2019-03-09T02:50:58.628Z,96113.77
2019-03-09T02:53:46.630Z,96118.45
2019-03-09T02:56:34.691Z,96117.80
2019-03-09T02:59:22.792Z,96119.65
2019-03-09T03:02:22.851Z,96123.25
2019-03-09T03:05:10.791Z,96118.61
2019-03-09T03:07:58.533Z,96116.91
2019-03-09T03:10:46.535Z,96124.35
2019-03-09T03:13:34.395Z,96126.49
2019-03-09T03:16:22.145Z,96119.75
2019-03-09T03:19:10.065Z,96117.58
2019-03-09T03:21:58.174Z,96109.30
2019-03-09T03:24:46.425Z,96117.89
2019-03-09T03:27:34.242Z,96103.96
2019-03-09T03:30:22.010Z,96103.11
2019-03-09T03:33:10.129Z,96096.30
2019-03-09T03:35:58.303Z,96109.80
2019-03-09T03:38:46.486Z,96106.87
2019-03-09T03:41:34.170Z,96106.25
2019-03-09T03:44:22.065Z,96097.31
2019-03-09T03:47:09.809Z,96107.79
2019-03-09T03:49:57.687Z,96099.59
2019-03-09T03:52:45.280Z,96107.19
2019-03-09T03:55:33.522Z,96103.45
2019-03-09T03:58:21.628Z,96098.81
2019-03-09T04:01:09.755Z,96066.11
2019-03-09T04:03:58.036Z,96087.67
2019-03-09T04:06:46.195Z,96095.95
2019-03-09T04:09:34.518Z,96103.50
2019-03-09T04:12:22.619Z,96101.48
2019-03-09T04:15:10.823Z,96110.39
2019-03-09T04:17:58.918Z,96119.78
2019-03-09T04:20:46.558Z,96116.75
2019-03-09T04:23:34.584Z,96118.23
2019-03-09T04:26:22.758Z,96131.98
2019-03-09T04:29:10.602Z,96123.65
2019-03-09T04:31:58.540Z,96122.91
2019-03-09T04:34:46.222Z,96128.67
2019-03-09T04:37:34.308Z,96131.88
2019-03-09T04:40:22.673Z,96132.02
2019-03-09T04:43:10.928Z,96127.47
2019-03-09T04:45:58.866Z,96141.08
2019-03-09T04:48:46.493Z,96128.33
2019-03-09T04:51:34.640Z,96131.52
2019-03-09T04:54:22.287Z,96138.64
2019-03-09T04:57:09.932Z,96132.81
2019-03-09T04:59:57.758Z,96120.97
2019-03-09T05:02:45.956Z,96139.50
2019-03-09T05:05:33.927Z,96111.63
2019-03-09T05:08:49.179Z,96114.46
2019-03-09T05:11:37.198Z,96138.28
2019-03-09T05:14:26.554Z,96127.48
2019-03-09T05:17:14.675Z,96125.62
2019-03-09T05:20:02.545Z,96131.27
2019-03-09T05:22:50.471Z,96129.78
2019-03-09T05:25:38.055Z,96128.33
2019-03-09T05:28:26.079Z,96148.76
2019-03-09T05:31:14.168Z,96149.94
2019-03-09T05:34:02.026Z,96155.84
2019-03-09T05:36:49.784Z,96143.08
2019-03-09T05:39:37.524Z,96142.34
2019-03-09T05:42:25.309Z,96141.34
2019-03-09T05:45:13.496Z,96125.70
2019-03-09T05:48:01.760Z,96131.71
2019-03-09T05:50:50.054Z,96146.64
2019-03-09T05:53:37.893Z,96152.39
2019-03-09T05:56:25.774Z,96150.88
2019-03-09T05:59:14.001Z,96155.71
2019-03-09T06:02:02.233Z,96154.92
2019-03-09T06:04:50.108Z,96153.16
2019-03-09T06:07:38.159Z,96162.11
2019-03-09T06:10:26.000Z,96157.70
2019-03-09T06:13:14.141Z,96163.21
2019-03-09T06:16:02.234Z,96154.75
2019-03-09T06:18:50.244Z,96164.13
2019-03-09T06:21:38.480Z,96167.58
2019-03-09T06:24:26.466Z,96164.70
2019-03-09T06:27:14.356Z,96179.67
2019-03-09T06:30:02.317Z,96180.03
2019-03-09T06:33:24.545Z,96194.88
2019-03-09T06:37:01.455Z,96194.54
2019-03-09T06:39:51.974Z,96187.78
2019-03-09T06:42:45.846Z,96206.08
2019-03-09T06:45:34.887Z,96200.22
2019-03-09T06:48:23.112Z,96212.28
2019-03-09T06:51:10.943Z,96209.23
2019-03-09T06:53:59.180Z,96225.43
2019-03-09T06:56:47.239Z,96233.63
2019-03-09T06:59:35.238Z,96229.92
2019-03-09T07:02:23.181Z,96235.90
2019-03-09T07:05:11.411Z,96237.38
2019-03-09T07:07:59.723Z,96252.03
2019-03-09T07:10:47.735Z,96256.63
2019-03-09T07:13:35.871Z,96260.12
2019-03-09T07:16:24.169Z,96269.13
2019-03-09T07:19:12.236Z,96274.22
2019-03-09T07:22:00.530Z,96269.83
2019-03-09T07:24:48.362Z,96275.58
2019-03-09T07:27:36.420Z,96269.80
2019-03-09T07:30:24.327Z,96268.28
2019-03-09T07:33:12.072Z,96278.37
2019-03-09T07:35:59.869Z,96294.48
2019-03-09T07:38:47.826Z,96287.64
2019-03-09T07:41:35.355Z,96273.84
2019-03-09T07:44:23.434Z,96287.55
2019-03-09T07:47:11.342Z,96292.13
2019-03-09T07:49:59.198Z,96292.34
2019-03-09T07:52:46.760Z,96302.50
2019-03-09T07:55:34.859Z,96287.89
2019-03-09T07:58:22.872Z,96293.30
2019-03-09T08:01:10.691Z,96300.12
2019-03-09T08:03:58.855Z,96299.11
2019-03-09T08:06:47.853Z,96301.69
2019-03-09T08:09:36.400Z,96310.02
2019-03-09T08:12:24.383Z,96310.36
2019-03-09T08:15:14.331Z,96305.21
2019-03-09T08:18:02.242Z,96315.52
2019-03-09T08:20:50.396Z,96332.08
2019-03-09T08:23:38.226Z,96325.03
2019-03-09T08:26:26.034Z,96335.66
2019-03-09T08:29:13.684Z,96347.58
2019-03-09T08:32:01.505Z,96340.88
2019-03-09T08:34:49.554Z,96343.90
2019-03-09T08:37:37.623Z,96352.86
2019-03-09T08:40:25.876Z,96333.11
2019-03-09T08:43:14.273Z,96351.13
2019-03-09T08:46:02.559Z,96342.13
2019-03-09T08:48:50.426Z,96341.76
2019-03-09T08:51:38.487Z,96344.84
2019-03-09T08:54:26.838Z,96355.16
2019-03-09T08:57:14.670Z,96360.20
2019-03-09T09:00:02.856Z,96360.70
2019-03-09T09:02:50.630Z,96368.13
2019-03-09T09:05:39.643Z,96363.42
2019-03-09T09:08:27.807Z,96353.18
2019-03-09T09:11:15.675Z,96358.02
2019-03-09T09:14:03.563Z,96354.55
2019-03-09T09:16:51.641Z,96360.22
2019-03-09T09:19:39.905Z,96347.78
2019-03-09T09:22:28.689Z,96345.13
2019-03-09T09:25:16.957Z,96337.89
2019-03-09T09:28:04.819Z,96332.16
2019-03-09T09:30:53.112Z,96340.74
2019-03-09T09:33:40.823Z,96326.86
2019-03-09T09:36:28.638Z,96330.28
2019-03-09T09:39:16.488Z,96323.61
2019-03-09T09:42:04.618Z,96321.27
2019-03-09T09:44:52.530Z,96321.89
2019-03-09T09:47:42.499Z,96319.47
2019-03-09T09:50:30.227Z,96323.81
2019-03-09T09:53:18.301Z,96328.70
2019-03-09T09:56:06.084Z,96304.43
2019-03-09T09:58:53.888Z,96315.28
2019-03-09T10:01:41.612Z,96313.96
2019-03-09T10:04:30.003Z,96306.25
2019-03-09T10:07:17.744Z,96317.95
2019-03-09T10:10:06.767Z,96313.64
2019-03-09T10:12:55.884Z,96303.00
2019-03-09T10:15:44.097Z,96292.56
2019-03-09T10:18:32.389Z,96297.33
2019-03-09T10:21:20.286Z,96300.77
2019-03-09T10:24:07.814Z,96300.31
2019-03-09T10:26:55.621Z,96294.33
2019-03-09T10:29:43.883Z,96297.77
2019-03-09T10:32:31.815Z,96305.47
2019-03-09T10:35:19.545Z,96287.86
2019-03-09T10:38:07.809Z,96302.47
2019-03-09T10:40:55.585Z,96278.28
2019-03-09T10:43:43.780Z,96280.77
2019-03-09T10:46:31.603Z,96284.99
2019-03-09T10:49:19.256Z,96259.94
2019-03-09T10:52:07.162Z,96271.67
2019-03-09T10:54:55.077Z,96260.72
2019-03-09T10:57:42.858Z,96245.67
2019-03-09T11:00:32.148Z,96242.23
2019-03-09T11:03:20.511Z,96240.00
2019-03-09T11:06:08.938Z,96249.32
2019-03-09T11:08:56.452Z,96263.86
2019-03-09T11:11:44.400Z,96260.00
2019-03-09T11:14:32.601Z,96250.48
2019-03-09T11:17:20.403Z,96251.41
2019-03-09T11:20:09.710Z,96245.40
2019-03-09T11:22:57.843Z,96247.77
2019-03-09T11:25:45.738Z,96244.08
2019-03-09T11:28:33.753Z,96224.48
2019-03-09T11:31:21.534Z,96219.82
2019-03-09T11:34:09.506Z,96222.27
2019-03-09T11:36:57.456Z,96221.21
2019-03-09T11:39:45.436Z,96234.63
2019-03-09T11:42:33.166Z,96233.92
2019-03-09T11:45:21.938Z,96234.18
2019-03-09T11:48:09.867Z,96227.33
2019-03-09T11:50:57.852Z,96206.09
2019-03-09T11:53:45.690Z,96202.48
2019-03-09T11:56:33.968Z,96200.65
2019-03-09T11:59:22.076Z,96199.02
2019-03-09T12:02:10.115Z,96199.25
2019-03-09T12:04:57.901Z,96184.64
2019-03-09T12:07:46.164Z,96180.97
2019-03-09T12:10:34.480Z,96181.45
2019-03-09T12:13:22.978Z,96191.77
2019-03-09T12:16:10.986Z,96177.69
2019-03-09T12:18:58.906Z,96157.44
2019-03-09T12:21:46.929Z,96161.86
2019-03-09T12:24:34.817Z,96147.00
2019-03-09T12:27:23.111Z,96136.53
2019-03-09T12:30:12.943Z,96141.11
2019-03-09T12:33:00.701Z,96127.52
2019-03-09T12:35:49.015Z,96144.23
2019-03-09T12:38:36.971Z,96131.66
2019-03-09T12:41:25.111Z,96126.54
2019-03-09T12:44:13.454Z,96116.51
2019-03-09T12:47:01.749Z,96095.98
2019-03-09T12:49:49.919Z,96092.34
2019-03-09T12:52:38.164Z,96065.75
2019-03-09T12:55:26.186Z,96079.83
2019-03-09T12:58:14.553Z,96063.33
2019-03-09T13:01:02.509Z,96065.21
2019-03-09T13:03:50.411Z,96060.67
2019-03-09T13:06:38.305Z,96063.81
2019-03-09T13:09:26.236Z,96049.81
2019-03-09T13:12:14.651Z,96054.88
2019-03-09T13:15:04.618Z,96074.75
2019-03-09T13:17:52.036Z,96081.91
2019-03-09T13:20:40.227Z,96067.46
2019-03-09T13:23:28.178Z,96085.48
2019-03-09T13:26:16.395Z,96072.59
2019-03-09T13:29:04.426Z,96102.53
2019-03-09T13:31:52.298Z,96101.25
2019-03-09T13:34:40.156Z,96125.37
2019-03-09T13:37:28.118Z,96130.70
2019-03-09T13:40:16.283Z,96135.41
2019-03-09T13:43:04.435Z,96135.03
2019-03-09T13:45:51.974Z,96141.89
2019-03-09T13:48:39.947Z,96142.30
2019-03-09T13:51:27.773Z,96137.15
2019-03-09T13:54:15.394Z,96132.16
2019-03-09T13:57:03.540Z,96136.72
2019-03-09T13:59:51.719Z,96131.22
2019-03-09T14:02:39.509Z,96127.86
2019-03-09T14:05:27.795Z,96127.69
2019-03-09T14:08:15.914Z,96137.12
2019-03-09T14:11:03.544Z,96138.92
2019-03-09T14:13:51.379Z,96113.02
2019-03-09T14:16:39.417Z,96109.63
2019-03-09T14:19:27.403Z,96117.66
2019-03-09T14:22:15.284Z,96115.73
2019-03-09T14:25:03.071Z,96113.25
2019-03-09T14:27:50.947Z,96121.97
2019-03-09T14:30:39.117Z,96107.59
2019-03-09T14:33:28.904Z,96127.04
2019-03-09T14:36:17.160Z,96117.78
